<?xml version="1.0" encoding="UTF-8" standalone="no" ?>
<gpx xmlns="http://www.topografix.com/GPX/1/1" xmlns:xsi="http://www.w3.org/2001/XMLSchema-instance" xsi:schemaLocation="http://www.topografix.com/GPX/1/1 http://www.topografix.com/GPX/1/1/gpx.xsd" version="1.1" creator="VisuGPX - https://www.visugpx.com">
  <metadata>
    <name>Les biges 2023</name>
  </metadata>
  <trk>
    <name><![CDATA[ST MEDARD 23]]></name>
    <trkseg>
      <trkpt lat="44.88687" lon="-0.74801">
        <ele>35.799999237061</ele>
        <time>2023-02-07T12:39:41Z</time>
      </trkpt>
      <trkpt lat="44.88687" lon="-0.74801">
        <ele>35.599998474121</ele>
        <time>2023-02-07T12:39:42Z</time>
      </trkpt>
      <trkpt lat="44.88686" lon="-0.74801">
        <ele>35.599998474121</ele>
        <time>2023-02-07T12:39:56Z</time>
      </trkpt>
      <trkpt lat="44.88686" lon="-0.74805">
        <ele>34.799999237061</ele>
        <time>2023-02-07T12:41:00Z</time>
      </trkpt>
      <trkpt lat="44.88684" lon="-0.74809">
        <ele>34.799999237061</ele>
        <time>2023-02-07T12:41:03Z</time>
      </trkpt>
      <trkpt lat="44.88684" lon="-0.74827">
        <ele>35.200000762939</ele>
        <time>2023-02-07T12:41:11Z</time>
      </trkpt>
      <trkpt lat="44.88687" lon="-0.74869">
        <ele>35.200000762939</ele>
        <time>2023-02-07T12:41:25Z</time>
      </trkpt>
      <trkpt lat="44.88694" lon="-0.74968">
        <ele>35.599998474121</ele>
        <time>2023-02-07T12:41:42Z</time>
      </trkpt>
      <trkpt lat="44.88698" lon="-0.75027">
        <ele>36</ele>
        <time>2023-02-07T12:41:51Z</time>
      </trkpt>
      <trkpt lat="44.88702" lon="-0.75087">
        <ele>36.200000762939</ele>
        <time>2023-02-07T12:42:00Z</time>
      </trkpt>
      <trkpt lat="44.88711" lon="-0.75136">
        <ele>36.400001525879</ele>
        <time>2023-02-07T12:42:08Z</time>
      </trkpt>
      <trkpt lat="44.88713" lon="-0.75142">
        <ele>36.400001525879</ele>
        <time>2023-02-07T12:42:09Z</time>
      </trkpt>
      <trkpt lat="44.88732" lon="-0.75193">
        <ele>36.599998474121</ele>
        <time>2023-02-07T12:42:18Z</time>
      </trkpt>
      <trkpt lat="44.88765" lon="-0.75281">
        <ele>36.799999237061</ele>
        <time>2023-02-07T12:42:33Z</time>
      </trkpt>
      <trkpt lat="44.88785" lon="-0.75324">
        <ele>37</ele>
        <time>2023-02-07T12:42:40Z</time>
      </trkpt>
      <trkpt lat="44.88793" lon="-0.75347">
        <ele>36.799999237061</ele>
        <time>2023-02-07T12:42:44Z</time>
      </trkpt>
      <trkpt lat="44.88813" lon="-0.7539">
        <ele>37.200000762939</ele>
        <time>2023-02-07T12:42:52Z</time>
      </trkpt>
      <trkpt lat="44.88837" lon="-0.7545">
        <ele>37.599998474121</ele>
        <time>2023-02-07T12:43:03Z</time>
      </trkpt>
      <trkpt lat="44.88841" lon="-0.7546">
        <ele>37.799999237061</ele>
        <time>2023-02-07T12:43:05Z</time>
      </trkpt>
      <trkpt lat="44.8885" lon="-0.75473">
        <ele>37.799999237061</ele>
        <time>2023-02-07T12:43:08Z</time>
      </trkpt>
      <trkpt lat="44.88896" lon="-0.75533">
        <ele>38</ele>
        <time>2023-02-07T12:43:23Z</time>
      </trkpt>
      <trkpt lat="44.88909" lon="-0.75546">
        <ele>38</ele>
        <time>2023-02-07T12:43:27Z</time>
      </trkpt>
      <trkpt lat="44.88951" lon="-0.75568">
        <ele>38.200000762939</ele>
        <time>2023-02-07T12:43:38Z</time>
      </trkpt>
      <trkpt lat="44.88995" lon="-0.75598">
        <ele>38.599998474121</ele>
        <time>2023-02-07T12:43:50Z</time>
      </trkpt>
      <trkpt lat="44.89033" lon="-0.75631">
        <ele>39.200000762939</ele>
        <time>2023-02-07T12:44:02Z</time>
      </trkpt>
      <trkpt lat="44.89047" lon="-0.7564">
        <ele>39.799999237061</ele>
        <time>2023-02-07T12:44:07Z</time>
      </trkpt>
      <trkpt lat="44.89048" lon="-0.75643">
        <ele>39.799999237061</ele>
        <time>2023-02-07T12:44:08Z</time>
      </trkpt>
      <trkpt lat="44.89048" lon="-0.75647">
        <ele>39.799999237061</ele>
        <time>2023-02-07T12:44:09Z</time>
      </trkpt>
      <trkpt lat="44.89048" lon="-0.75651">
        <ele>39.799999237061</ele>
        <time>2023-02-07T12:44:10Z</time>
      </trkpt>
      <trkpt lat="44.89049" lon="-0.7566">
        <ele>40</ele>
        <time>2023-02-07T12:44:12Z</time>
      </trkpt>
      <trkpt lat="44.89058" lon="-0.75723">
        <ele>40.400001525879</ele>
        <time>2023-02-07T12:44:25Z</time>
      </trkpt>
      <trkpt lat="44.89069" lon="-0.75788">
        <ele>41</ele>
        <time>2023-02-07T12:44:37Z</time>
      </trkpt>
      <trkpt lat="44.89078" lon="-0.75865">
        <ele>41.799999237061</ele>
        <time>2023-02-07T12:44:50Z</time>
      </trkpt>
      <trkpt lat="44.89094" lon="-0.75931">
        <ele>42.799999237061</ele>
        <time>2023-02-07T12:45:03Z</time>
      </trkpt>
      <trkpt lat="44.891" lon="-0.75975">
        <ele>43.400001525879</ele>
        <time>2023-02-07T12:45:11Z</time>
      </trkpt>
      <trkpt lat="44.8911" lon="-0.7604">
        <ele>43.799999237061</ele>
        <time>2023-02-07T12:45:22Z</time>
      </trkpt>
      <trkpt lat="44.89117" lon="-0.76096">
        <ele>44.400001525879</ele>
        <time>2023-02-07T12:45:32Z</time>
      </trkpt>
      <trkpt lat="44.89122" lon="-0.76151">
        <ele>44.599998474121</ele>
        <time>2023-02-07T12:45:42Z</time>
      </trkpt>
      <trkpt lat="44.89127" lon="-0.76224">
        <ele>44.799999237061</ele>
        <time>2023-02-07T12:45:54Z</time>
      </trkpt>
      <trkpt lat="44.89123" lon="-0.76254">
        <ele>44.799999237061</ele>
        <time>2023-02-07T12:45:59Z</time>
      </trkpt>
      <trkpt lat="44.89121" lon="-0.76313">
        <ele>45.200000762939</ele>
        <time>2023-02-07T12:46:09Z</time>
      </trkpt>
      <trkpt lat="44.89118" lon="-0.76359">
        <ele>45.200000762939</ele>
        <time>2023-02-07T12:46:16Z</time>
      </trkpt>
      <trkpt lat="44.89118" lon="-0.76366">
        <ele>45.200000762939</ele>
        <time>2023-02-07T12:46:17Z</time>
      </trkpt>
      <trkpt lat="44.89117" lon="-0.76373">
        <ele>45.200000762939</ele>
        <time>2023-02-07T12:46:18Z</time>
      </trkpt>
      <trkpt lat="44.89118" lon="-0.7638">
        <ele>45.200000762939</ele>
        <time>2023-02-07T12:46:19Z</time>
      </trkpt>
      <trkpt lat="44.89118" lon="-0.76387">
        <ele>45.200000762939</ele>
        <time>2023-02-07T12:46:20Z</time>
      </trkpt>
      <trkpt lat="44.89113" lon="-0.76424">
        <ele>45</ele>
        <time>2023-02-07T12:46:26Z</time>
      </trkpt>
      <trkpt lat="44.89107" lon="-0.76456">
        <ele>45</ele>
        <time>2023-02-07T12:46:32Z</time>
      </trkpt>
      <trkpt lat="44.89092" lon="-0.76517">
        <ele>44.400001525879</ele>
        <time>2023-02-07T12:46:43Z</time>
      </trkpt>
      <trkpt lat="44.89072" lon="-0.76552">
        <ele>43.799999237061</ele>
        <time>2023-02-07T12:46:54Z</time>
      </trkpt>
      <trkpt lat="44.89072" lon="-0.76554">
        <ele>43.799999237061</ele>
        <time>2023-02-07T12:46:55Z</time>
      </trkpt>
      <trkpt lat="44.89076" lon="-0.76558">
        <ele>43.599998474121</ele>
        <time>2023-02-07T12:46:59Z</time>
      </trkpt>
      <trkpt lat="44.89084" lon="-0.76564">
        <ele>44.200000762939</ele>
        <time>2023-02-07T12:47:15Z</time>
      </trkpt>
      <trkpt lat="44.89084" lon="-0.76564">
        <ele>44.200000762939</ele>
        <time>2023-02-07T12:47:16Z</time>
      </trkpt>
      <trkpt lat="44.89089" lon="-0.7656">
        <ele>44.599998474121</ele>
        <time>2023-02-07T12:47:20Z</time>
      </trkpt>
      <trkpt lat="44.89117" lon="-0.76538">
        <ele>44.200000762939</ele>
        <time>2023-02-07T12:47:36Z</time>
      </trkpt>
      <trkpt lat="44.89131" lon="-0.76554">
        <ele>44.400001525879</ele>
        <time>2023-02-07T12:47:49Z</time>
      </trkpt>
      <trkpt lat="44.89136" lon="-0.76585">
        <ele>44.200000762939</ele>
        <time>2023-02-07T12:48:04Z</time>
      </trkpt>
      <trkpt lat="44.89144" lon="-0.76628">
        <ele>44.200000762939</ele>
        <time>2023-02-07T12:48:23Z</time>
      </trkpt>
      <trkpt lat="44.89142" lon="-0.76649">
        <ele>44</ele>
        <time>2023-02-07T12:48:38Z</time>
      </trkpt>
      <trkpt lat="44.89139" lon="-0.76685">
        <ele>43.799999237061</ele>
        <time>2023-02-07T12:48:50Z</time>
      </trkpt>
      <trkpt lat="44.89157" lon="-0.7675">
        <ele>44</ele>
        <time>2023-02-07T12:49:06Z</time>
      </trkpt>
      <trkpt lat="44.89191" lon="-0.76768">
        <ele>44.599998474121</ele>
        <time>2023-02-07T12:49:17Z</time>
      </trkpt>
      <trkpt lat="44.892" lon="-0.76789">
        <ele>44.799999237061</ele>
        <time>2023-02-07T12:49:22Z</time>
      </trkpt>
      <trkpt lat="44.892" lon="-0.76795">
        <ele>44.799999237061</ele>
        <time>2023-02-07T12:49:23Z</time>
      </trkpt>
      <trkpt lat="44.89201" lon="-0.768">
        <ele>45</ele>
        <time>2023-02-07T12:49:24Z</time>
      </trkpt>
      <trkpt lat="44.89212" lon="-0.76887">
        <ele>45.799999237061</ele>
        <time>2023-02-07T12:49:40Z</time>
      </trkpt>
      <trkpt lat="44.89224" lon="-0.76981">
        <ele>45.799999237061</ele>
        <time>2023-02-07T12:49:57Z</time>
      </trkpt>
      <trkpt lat="44.89229" lon="-0.77021">
        <ele>46</ele>
        <time>2023-02-07T12:50:09Z</time>
      </trkpt>
      <trkpt lat="44.89232" lon="-0.77057">
        <ele>46.799999237061</ele>
        <time>2023-02-07T12:50:25Z</time>
      </trkpt>
      <trkpt lat="44.89254" lon="-0.77084">
        <ele>47</ele>
        <time>2023-02-07T12:50:39Z</time>
      </trkpt>
      <trkpt lat="44.89269" lon="-0.77153">
        <ele>46.799999237061</ele>
        <time>2023-02-07T12:50:52Z</time>
      </trkpt>
      <trkpt lat="44.89272" lon="-0.77231">
        <ele>45.599998474121</ele>
        <time>2023-02-07T12:51:07Z</time>
      </trkpt>
      <trkpt lat="44.89271" lon="-0.77249">
        <ele>45.400001525879</ele>
        <time>2023-02-07T12:51:10Z</time>
      </trkpt>
      <trkpt lat="44.89274" lon="-0.77286">
        <ele>45.200000762939</ele>
        <time>2023-02-07T12:51:15Z</time>
      </trkpt>
      <trkpt lat="44.89278" lon="-0.77308">
        <ele>44.799999237061</ele>
        <time>2023-02-07T12:51:18Z</time>
      </trkpt>
      <trkpt lat="44.89301" lon="-0.774">
        <ele>43.799999237061</ele>
        <time>2023-02-07T12:51:33Z</time>
      </trkpt>
      <trkpt lat="44.893" lon="-0.77413">
        <ele>43.799999237061</ele>
        <time>2023-02-07T12:51:36Z</time>
      </trkpt>
      <trkpt lat="44.89297" lon="-0.77417">
        <ele>43.799999237061</ele>
        <time>2023-02-07T12:51:38Z</time>
      </trkpt>
      <trkpt lat="44.89295" lon="-0.77418">
        <ele>43.799999237061</ele>
        <time>2023-02-07T12:51:39Z</time>
      </trkpt>
      <trkpt lat="44.89292" lon="-0.77419">
        <ele>43.799999237061</ele>
        <time>2023-02-07T12:51:40Z</time>
      </trkpt>
      <trkpt lat="44.89289" lon="-0.77419">
        <ele>43.799999237061</ele>
        <time>2023-02-07T12:51:41Z</time>
      </trkpt>
      <trkpt lat="44.89229" lon="-0.7743">
        <ele>43.400001525879</ele>
        <time>2023-02-07T12:51:58Z</time>
      </trkpt>
      <trkpt lat="44.89206" lon="-0.77439">
        <ele>43.599998474121</ele>
        <time>2023-02-07T12:52:05Z</time>
      </trkpt>
      <trkpt lat="44.89205" lon="-0.77443">
        <ele>43.599998474121</ele>
        <time>2023-02-07T12:52:06Z</time>
      </trkpt>
      <trkpt lat="44.89212" lon="-0.77473">
        <ele>43.599998474121</ele>
        <time>2023-02-07T12:52:15Z</time>
      </trkpt>
      <trkpt lat="44.89212" lon="-0.77489">
        <ele>43.599998474121</ele>
        <time>2023-02-07T12:52:18Z</time>
      </trkpt>
      <trkpt lat="44.89219" lon="-0.77536">
        <ele>43.400001525879</ele>
        <time>2023-02-07T12:52:28Z</time>
      </trkpt>
      <trkpt lat="44.89225" lon="-0.77585">
        <ele>43.599998474121</ele>
        <time>2023-02-07T12:52:38Z</time>
      </trkpt>
      <trkpt lat="44.89228" lon="-0.77623">
        <ele>43.599998474121</ele>
        <time>2023-02-07T12:52:45Z</time>
      </trkpt>
      <trkpt lat="44.89224" lon="-0.77678">
        <ele>43.799999237061</ele>
        <time>2023-02-07T12:52:54Z</time>
      </trkpt>
      <trkpt lat="44.8922" lon="-0.7771">
        <ele>43.799999237061</ele>
        <time>2023-02-07T12:53:02Z</time>
      </trkpt>
      <trkpt lat="44.89212" lon="-0.7773">
        <ele>44</ele>
        <time>2023-02-07T12:53:07Z</time>
      </trkpt>
      <trkpt lat="44.89169" lon="-0.77757">
        <ele>43.799999237061</ele>
        <time>2023-02-07T12:53:19Z</time>
      </trkpt>
      <trkpt lat="44.89145" lon="-0.77775">
        <ele>43.799999237061</ele>
        <time>2023-02-07T12:53:28Z</time>
      </trkpt>
      <trkpt lat="44.8914" lon="-0.77806">
        <ele>43.799999237061</ele>
        <time>2023-02-07T12:53:35Z</time>
      </trkpt>
      <trkpt lat="44.89142" lon="-0.77837">
        <ele>43.599998474121</ele>
        <time>2023-02-07T12:53:41Z</time>
      </trkpt>
      <trkpt lat="44.89151" lon="-0.7784">
        <ele>43.400001525879</ele>
        <time>2023-02-07T12:53:45Z</time>
      </trkpt>
      <trkpt lat="44.8916" lon="-0.7785">
        <ele>43.400001525879</ele>
        <time>2023-02-07T12:53:51Z</time>
      </trkpt>
      <trkpt lat="44.89171" lon="-0.77892">
        <ele>43.400001525879</ele>
        <time>2023-02-07T12:54:02Z</time>
      </trkpt>
      <trkpt lat="44.8919" lon="-0.77916">
        <ele>43.599998474121</ele>
        <time>2023-02-07T12:54:10Z</time>
      </trkpt>
      <trkpt lat="44.89204" lon="-0.77911">
        <ele>43.799999237061</ele>
        <time>2023-02-07T12:54:15Z</time>
      </trkpt>
      <trkpt lat="44.89211" lon="-0.77907">
        <ele>43.799999237061</ele>
        <time>2023-02-07T12:54:18Z</time>
      </trkpt>
      <trkpt lat="44.89233" lon="-0.77937">
        <ele>44.400001525879</ele>
        <time>2023-02-07T12:54:28Z</time>
      </trkpt>
      <trkpt lat="44.89236" lon="-0.77995">
        <ele>45.200000762939</ele>
        <time>2023-02-07T12:54:40Z</time>
      </trkpt>
      <trkpt lat="44.8924" lon="-0.78017">
        <ele>45.200000762939</ele>
        <time>2023-02-07T12:54:48Z</time>
      </trkpt>
      <trkpt lat="44.89232" lon="-0.78045">
        <ele>44.599998474121</ele>
        <time>2023-02-07T12:54:58Z</time>
      </trkpt>
      <trkpt lat="44.89231" lon="-0.78054">
        <ele>44.599998474121</ele>
        <time>2023-02-07T12:55:00Z</time>
      </trkpt>
      <trkpt lat="44.89211" lon="-0.78068">
        <ele>44.799999237061</ele>
        <time>2023-02-07T12:55:06Z</time>
      </trkpt>
      <trkpt lat="44.89186" lon="-0.78077">
        <ele>44.799999237061</ele>
        <time>2023-02-07T12:55:14Z</time>
      </trkpt>
      <trkpt lat="44.89171" lon="-0.78095">
        <ele>44.799999237061</ele>
        <time>2023-02-07T12:55:19Z</time>
      </trkpt>
      <trkpt lat="44.89157" lon="-0.78145">
        <ele>45</ele>
        <time>2023-02-07T12:55:29Z</time>
      </trkpt>
      <trkpt lat="44.89156" lon="-0.78151">
        <ele>45</ele>
        <time>2023-02-07T12:55:30Z</time>
      </trkpt>
      <trkpt lat="44.89141" lon="-0.78167">
        <ele>44.799999237061</ele>
        <time>2023-02-07T12:55:36Z</time>
      </trkpt>
      <trkpt lat="44.89134" lon="-0.78225">
        <ele>44.599998474121</ele>
        <time>2023-02-07T12:55:47Z</time>
      </trkpt>
      <trkpt lat="44.89132" lon="-0.78243">
        <ele>44.400001525879</ele>
        <time>2023-02-07T12:55:57Z</time>
      </trkpt>
      <trkpt lat="44.89133" lon="-0.78248">
        <ele>43.400001525879</ele>
        <time>2023-02-07T12:56:44Z</time>
      </trkpt>
      <trkpt lat="44.89136" lon="-0.7825">
        <ele>43.400001525879</ele>
        <time>2023-02-07T12:56:46Z</time>
      </trkpt>
      <trkpt lat="44.89172" lon="-0.78256">
        <ele>44.200000762939</ele>
        <time>2023-02-07T12:56:59Z</time>
      </trkpt>
      <trkpt lat="44.89207" lon="-0.7826">
        <ele>44.400001525879</ele>
        <time>2023-02-07T12:57:10Z</time>
      </trkpt>
      <trkpt lat="44.89245" lon="-0.78265">
        <ele>44.200000762939</ele>
        <time>2023-02-07T12:57:21Z</time>
      </trkpt>
      <trkpt lat="44.89283" lon="-0.7827">
        <ele>44.400001525879</ele>
        <time>2023-02-07T12:57:31Z</time>
      </trkpt>
      <trkpt lat="44.89298" lon="-0.78317">
        <ele>44.799999237061</ele>
        <time>2023-02-07T12:57:43Z</time>
      </trkpt>
      <trkpt lat="44.89305" lon="-0.78383">
        <ele>44.799999237061</ele>
        <time>2023-02-07T12:57:57Z</time>
      </trkpt>
      <trkpt lat="44.89309" lon="-0.78428">
        <ele>45</ele>
        <time>2023-02-07T12:58:07Z</time>
      </trkpt>
      <trkpt lat="44.89319" lon="-0.78502">
        <ele>44.599998474121</ele>
        <time>2023-02-07T12:58:23Z</time>
      </trkpt>
      <trkpt lat="44.89326" lon="-0.78557">
        <ele>44.599998474121</ele>
        <time>2023-02-07T12:58:35Z</time>
      </trkpt>
      <trkpt lat="44.89339" lon="-0.78626">
        <ele>44.400001525879</ele>
        <time>2023-02-07T12:58:48Z</time>
      </trkpt>
      <trkpt lat="44.89345" lon="-0.78692">
        <ele>44.599998474121</ele>
        <time>2023-02-07T12:59:03Z</time>
      </trkpt>
      <trkpt lat="44.89345" lon="-0.78728">
        <ele>45.200000762939</ele>
        <time>2023-02-07T12:59:16Z</time>
      </trkpt>
      <trkpt lat="44.89342" lon="-0.78729">
        <ele>45.200000762939</ele>
        <time>2023-02-07T12:59:18Z</time>
      </trkpt>
      <trkpt lat="44.89343" lon="-0.78741">
        <ele>45.400001525879</ele>
        <time>2023-02-07T13:02:13Z</time>
      </trkpt>
      <trkpt lat="44.89343" lon="-0.78744">
        <ele>45.400001525879</ele>
        <time>2023-02-07T13:02:14Z</time>
      </trkpt>
      <trkpt lat="44.89343" lon="-0.78748">
        <ele>45.400001525879</ele>
        <time>2023-02-07T13:02:15Z</time>
      </trkpt>
      <trkpt lat="44.89341" lon="-0.78751">
        <ele>45.400001525879</ele>
        <time>2023-02-07T13:02:16Z</time>
      </trkpt>
      <trkpt lat="44.89339" lon="-0.78754">
        <ele>45.400001525879</ele>
        <time>2023-02-07T13:02:17Z</time>
      </trkpt>
      <trkpt lat="44.89337" lon="-0.78762">
        <ele>45.400001525879</ele>
        <time>2023-02-07T13:02:19Z</time>
      </trkpt>
      <trkpt lat="44.89355" lon="-0.78775">
        <ele>45.200000762939</ele>
        <time>2023-02-07T13:02:28Z</time>
      </trkpt>
      <trkpt lat="44.89358" lon="-0.78773">
        <ele>45.400001525879</ele>
        <time>2023-02-07T13:02:29Z</time>
      </trkpt>
      <trkpt lat="44.89384" lon="-0.78752">
        <ele>45.599998474121</ele>
        <time>2023-02-07T13:02:36Z</time>
      </trkpt>
      <trkpt lat="44.89403" lon="-0.78744">
        <ele>45.599998474121</ele>
        <time>2023-02-07T13:02:41Z</time>
      </trkpt>
      <trkpt lat="44.89443" lon="-0.78753">
        <ele>45.599998474121</ele>
        <time>2023-02-07T13:02:51Z</time>
      </trkpt>
      <trkpt lat="44.89456" lon="-0.78756">
        <ele>45.400001525879</ele>
        <time>2023-02-07T13:02:54Z</time>
      </trkpt>
      <trkpt lat="44.89484" lon="-0.78759">
        <ele>45.400001525879</ele>
        <time>2023-02-07T13:03:00Z</time>
      </trkpt>
      <trkpt lat="44.89498" lon="-0.78802">
        <ele>45</ele>
        <time>2023-02-07T13:03:08Z</time>
      </trkpt>
      <trkpt lat="44.89512" lon="-0.7885">
        <ele>45.200000762939</ele>
        <time>2023-02-07T13:03:16Z</time>
      </trkpt>
      <trkpt lat="44.89513" lon="-0.78878">
        <ele>45.599998474121</ele>
        <time>2023-02-07T13:03:20Z</time>
      </trkpt>
      <trkpt lat="44.89513" lon="-0.7889">
        <ele>45.799999237061</ele>
        <time>2023-02-07T13:03:22Z</time>
      </trkpt>
      <trkpt lat="44.89514" lon="-0.78934">
        <ele>46.200000762939</ele>
        <time>2023-02-07T13:03:29Z</time>
      </trkpt>
      <trkpt lat="44.89492" lon="-0.79029">
        <ele>46.400001525879</ele>
        <time>2023-02-07T13:03:43Z</time>
      </trkpt>
      <trkpt lat="44.89485" lon="-0.79071">
        <ele>46.200000762939</ele>
        <time>2023-02-07T13:03:49Z</time>
      </trkpt>
      <trkpt lat="44.89478" lon="-0.79103">
        <ele>46.200000762939</ele>
        <time>2023-02-07T13:03:54Z</time>
      </trkpt>
      <trkpt lat="44.89471" lon="-0.79166">
        <ele>46.200000762939</ele>
        <time>2023-02-07T13:04:03Z</time>
      </trkpt>
      <trkpt lat="44.8947" lon="-0.79187">
        <ele>46.200000762939</ele>
        <time>2023-02-07T13:04:06Z</time>
      </trkpt>
      <trkpt lat="44.89469" lon="-0.79207">
        <ele>46.400001525879</ele>
        <time>2023-02-07T13:04:09Z</time>
      </trkpt>
      <trkpt lat="44.89469" lon="-0.79222">
        <ele>46.400001525879</ele>
        <time>2023-02-07T13:04:11Z</time>
      </trkpt>
      <trkpt lat="44.89465" lon="-0.79258">
        <ele>46.400001525879</ele>
        <time>2023-02-07T13:04:16Z</time>
      </trkpt>
      <trkpt lat="44.89455" lon="-0.79311">
        <ele>46.599998474121</ele>
        <time>2023-02-07T13:04:24Z</time>
      </trkpt>
      <trkpt lat="44.89452" lon="-0.79332">
        <ele>46.599998474121</ele>
        <time>2023-02-07T13:04:27Z</time>
      </trkpt>
      <trkpt lat="44.89442" lon="-0.79408">
        <ele>46.599998474121</ele>
        <time>2023-02-07T13:04:40Z</time>
      </trkpt>
      <trkpt lat="44.89435" lon="-0.79424">
        <ele>46.599998474121</ele>
        <time>2023-02-07T13:04:43Z</time>
      </trkpt>
      <trkpt lat="44.89432" lon="-0.79437">
        <ele>46.599998474121</ele>
        <time>2023-02-07T13:04:45Z</time>
      </trkpt>
      <trkpt lat="44.89418" lon="-0.79499">
        <ele>47</ele>
        <time>2023-02-07T13:04:54Z</time>
      </trkpt>
      <trkpt lat="44.89415" lon="-0.7952">
        <ele>47.200000762939</ele>
        <time>2023-02-07T13:04:57Z</time>
      </trkpt>
      <trkpt lat="44.89411" lon="-0.79546">
        <ele>47.200000762939</ele>
        <time>2023-02-07T13:05:01Z</time>
      </trkpt>
      <trkpt lat="44.89408" lon="-0.79568">
        <ele>47.200000762939</ele>
        <time>2023-02-07T13:05:04Z</time>
      </trkpt>
      <trkpt lat="44.89388" lon="-0.79647">
        <ele>46.799999237061</ele>
        <time>2023-02-07T13:05:14Z</time>
      </trkpt>
      <trkpt lat="44.89374" lon="-0.79682">
        <ele>46.799999237061</ele>
        <time>2023-02-07T13:05:19Z</time>
      </trkpt>
      <trkpt lat="44.89366" lon="-0.79698">
        <ele>47</ele>
        <time>2023-02-07T13:05:22Z</time>
      </trkpt>
      <trkpt lat="44.89342" lon="-0.79751">
        <ele>47</ele>
        <time>2023-02-07T13:05:32Z</time>
      </trkpt>
      <trkpt lat="44.89303" lon="-0.79841">
        <ele>47</ele>
        <time>2023-02-07T13:05:47Z</time>
      </trkpt>
      <trkpt lat="44.89275" lon="-0.79924">
        <ele>46.200000762939</ele>
        <time>2023-02-07T13:06:02Z</time>
      </trkpt>
      <trkpt lat="44.89274" lon="-0.79926">
        <ele>46.200000762939</ele>
        <time>2023-02-07T13:06:03Z</time>
      </trkpt>
      <trkpt lat="44.89258" lon="-0.79913">
        <ele>46</ele>
        <time>2023-02-07T13:06:14Z</time>
      </trkpt>
      <trkpt lat="44.89239" lon="-0.7992">
        <ele>45.799999237061</ele>
        <time>2023-02-07T13:06:29Z</time>
      </trkpt>
      <trkpt lat="44.89236" lon="-0.79918">
        <ele>45.799999237061</ele>
        <time>2023-02-07T13:07:38Z</time>
      </trkpt>
      <trkpt lat="44.8922" lon="-0.79942">
        <ele>45</ele>
        <time>2023-02-07T13:07:50Z</time>
      </trkpt>
      <trkpt lat="44.89195" lon="-0.79947">
        <ele>44.799999237061</ele>
        <time>2023-02-07T13:08:00Z</time>
      </trkpt>
      <trkpt lat="44.89176" lon="-0.79938">
        <ele>43.799999237061</ele>
        <time>2023-02-07T13:08:10Z</time>
      </trkpt>
      <trkpt lat="44.8917" lon="-0.79929">
        <ele>44.200000762939</ele>
        <time>2023-02-07T13:08:14Z</time>
      </trkpt>
      <trkpt lat="44.8917" lon="-0.79883">
        <ele>45</ele>
        <time>2023-02-07T13:08:27Z</time>
      </trkpt>
      <trkpt lat="44.89156" lon="-0.79869">
        <ele>44.799999237061</ele>
        <time>2023-02-07T13:08:34Z</time>
      </trkpt>
      <trkpt lat="44.89106" lon="-0.79877">
        <ele>45.599998474121</ele>
        <time>2023-02-07T13:08:49Z</time>
      </trkpt>
      <trkpt lat="44.89061" lon="-0.7987">
        <ele>45.400001525879</ele>
        <time>2023-02-07T13:09:01Z</time>
      </trkpt>
      <trkpt lat="44.89016" lon="-0.79864">
        <ele>45.400001525879</ele>
        <time>2023-02-07T13:09:12Z</time>
      </trkpt>
      <trkpt lat="44.88986" lon="-0.79858">
        <ele>45.400001525879</ele>
        <time>2023-02-07T13:09:21Z</time>
      </trkpt>
      <trkpt lat="44.88962" lon="-0.79836">
        <ele>45.400001525879</ele>
        <time>2023-02-07T13:09:30Z</time>
      </trkpt>
      <trkpt lat="44.88919" lon="-0.79813">
        <ele>45.200000762939</ele>
        <time>2023-02-07T13:09:42Z</time>
      </trkpt>
      <trkpt lat="44.88905" lon="-0.79807">
        <ele>45</ele>
        <time>2023-02-07T13:09:46Z</time>
      </trkpt>
      <trkpt lat="44.88874" lon="-0.79793">
        <ele>44.599998474121</ele>
        <time>2023-02-07T13:09:56Z</time>
      </trkpt>
      <trkpt lat="44.8887" lon="-0.79792">
        <ele>44.599998474121</ele>
        <time>2023-02-07T13:09:57Z</time>
      </trkpt>
      <trkpt lat="44.88832" lon="-0.79774">
        <ele>44.200000762939</ele>
        <time>2023-02-07T13:10:10Z</time>
      </trkpt>
      <trkpt lat="44.88821" lon="-0.79766">
        <ele>43.599998474121</ele>
        <time>2023-02-07T13:10:45Z</time>
      </trkpt>
      <trkpt lat="44.88817" lon="-0.79765">
        <ele>43.200000762939</ele>
        <time>2023-02-07T13:10:58Z</time>
      </trkpt>
      <trkpt lat="44.88794" lon="-0.79777">
        <ele>43</ele>
        <time>2023-02-07T13:11:09Z</time>
      </trkpt>
      <trkpt lat="44.88788" lon="-0.79776">
        <ele>43</ele>
        <time>2023-02-07T13:11:11Z</time>
      </trkpt>
      <trkpt lat="44.88756" lon="-0.79797">
        <ele>43.400001525879</ele>
        <time>2023-02-07T13:11:23Z</time>
      </trkpt>
      <trkpt lat="44.88727" lon="-0.79809">
        <ele>43.200000762939</ele>
        <time>2023-02-07T13:11:33Z</time>
      </trkpt>
      <trkpt lat="44.88698" lon="-0.7985">
        <ele>43.200000762939</ele>
        <time>2023-02-07T13:11:46Z</time>
      </trkpt>
      <trkpt lat="44.88665" lon="-0.79888">
        <ele>42.200000762939</ele>
        <time>2023-02-07T13:11:59Z</time>
      </trkpt>
      <trkpt lat="44.88646" lon="-0.79912">
        <ele>42.599998474121</ele>
        <time>2023-02-07T13:12:09Z</time>
      </trkpt>
      <trkpt lat="44.88647" lon="-0.79927">
        <ele>41.400001525879</ele>
        <time>2023-02-07T13:12:14Z</time>
      </trkpt>
      <trkpt lat="44.88666" lon="-0.79966">
        <ele>40</ele>
        <time>2023-02-07T13:12:27Z</time>
      </trkpt>
      <trkpt lat="44.88681" lon="-0.79987">
        <ele>41.400001525879</ele>
        <time>2023-02-07T13:12:35Z</time>
      </trkpt>
      <trkpt lat="44.88682" lon="-0.8001">
        <ele>42.400001525879</ele>
        <time>2023-02-07T13:12:41Z</time>
      </trkpt>
      <trkpt lat="44.88674" lon="-0.80027">
        <ele>42.400001525879</ele>
        <time>2023-02-07T13:12:46Z</time>
      </trkpt>
      <trkpt lat="44.88663" lon="-0.80047">
        <ele>41.200000762939</ele>
        <time>2023-02-07T13:12:53Z</time>
      </trkpt>
      <trkpt lat="44.88661" lon="-0.80059">
        <ele>40.200000762939</ele>
        <time>2023-02-07T13:12:58Z</time>
      </trkpt>
      <trkpt lat="44.88661" lon="-0.80069">
        <ele>39.799999237061</ele>
        <time>2023-02-07T13:13:02Z</time>
      </trkpt>
      <trkpt lat="44.88659" lon="-0.80074">
        <ele>39.799999237061</ele>
        <time>2023-02-07T13:13:04Z</time>
      </trkpt>
      <trkpt lat="44.88656" lon="-0.80079">
        <ele>40.200000762939</ele>
        <time>2023-02-07T13:13:44Z</time>
      </trkpt>
      <trkpt lat="44.88646" lon="-0.80028">
        <ele>35.328125</ele>
      </trkpt>
      <trkpt lat="44.88638" lon="-0.79996">
        <ele>35.375</ele>
      </trkpt>
      <trkpt lat="44.88628" lon="-0.79963">
        <ele>35.0625</ele>
      </trkpt>
      <trkpt lat="44.88615" lon="-0.79937">
        <ele>35.0625</ele>
      </trkpt>
      <trkpt lat="44.88602" lon="-0.79913">
        <ele>35.01953125</ele>
      </trkpt>
      <trkpt lat="44.88592" lon="-0.79897">
        <ele>35</ele>
      </trkpt>
      <trkpt lat="44.886" lon="-0.79869">
        <ele>35</ele>
      </trkpt>
      <trkpt lat="44.88606" lon="-0.79864">
        <ele>35</ele>
      </trkpt>
      <trkpt lat="44.88611" lon="-0.79856">
        <ele>35</ele>
      </trkpt>
      <trkpt lat="44.88611" lon="-0.79841">
        <ele>35</ele>
      </trkpt>
      <trkpt lat="44.88596" lon="-0.79832">
        <ele>35</ele>
      </trkpt>
      <trkpt lat="44.88581" lon="-0.79815">
        <ele>35</ele>
      </trkpt>
      <trkpt lat="44.88572" lon="-0.7981">
        <ele>34.9921875</ele>
      </trkpt>
      <trkpt lat="44.88553" lon="-0.79806">
        <ele>34.9921875</ele>
      </trkpt>
      <trkpt lat="44.8854" lon="-0.79805">
        <ele>34.83984375</ele>
      </trkpt>
      <trkpt lat="44.8853" lon="-0.7981">
        <ele>34.3515625</ele>
      </trkpt>
      <trkpt lat="44.88508" lon="-0.79802">
        <ele>34.3515625</ele>
      </trkpt>
      <trkpt lat="44.88494" lon="-0.79796">
        <ele>34.328125</ele>
      </trkpt>
      <trkpt lat="44.88483" lon="-0.79792">
        <ele>34.3359375</ele>
      </trkpt>
      <trkpt lat="44.88474" lon="-0.79788">
        <ele>34.56640625</ele>
      </trkpt>
      <trkpt lat="44.88468" lon="-0.79786">
        <ele>34.5859375</ele>
      </trkpt>
      <trkpt lat="44.88455" lon="-0.79768">
        <ele>34.72265625</ele>
      </trkpt>
      <trkpt lat="44.88455" lon="-0.79768">
        <ele>34.72265625</ele>
      </trkpt>
      <trkpt lat="44.88437" lon="-0.7974">
        <ele>38.799999237061</ele>
        <time>2023-02-07T13:38:59Z</time>
      </trkpt>
      <trkpt lat="44.88423" lon="-0.79721">
        <ele>40.400001525879</ele>
        <time>2023-02-07T13:49:09Z</time>
      </trkpt>
      <trkpt lat="44.88403" lon="-0.7969">
        <ele>39.799999237061</ele>
        <time>2023-02-07T13:49:21Z</time>
      </trkpt>
      <trkpt lat="44.88395" lon="-0.79683">
        <ele>39.599998474121</ele>
        <time>2023-02-07T13:49:24Z</time>
      </trkpt>
      <trkpt lat="44.88385" lon="-0.7967">
        <ele>38.599998474121</ele>
        <time>2023-02-07T13:49:28Z</time>
      </trkpt>
      <trkpt lat="44.88372" lon="-0.79661">
        <ele>37.599998474121</ele>
        <time>2023-02-07T13:49:34Z</time>
      </trkpt>
      <trkpt lat="44.88366" lon="-0.7965">
        <ele>37.400001525879</ele>
        <time>2023-02-07T13:49:38Z</time>
      </trkpt>
      <trkpt lat="44.8834" lon="-0.79628">
        <ele>36.799999237061</ele>
        <time>2023-02-07T13:49:48Z</time>
      </trkpt>
      <trkpt lat="44.88336" lon="-0.79622">
        <ele>36.599998474121</ele>
        <time>2023-02-07T13:49:51Z</time>
      </trkpt>
      <trkpt lat="44.88331" lon="-0.79613">
        <ele>36.599998474121</ele>
        <time>2023-02-07T13:49:55Z</time>
      </trkpt>
      <trkpt lat="44.88311" lon="-0.79586">
        <ele>39.200000762939</ele>
        <time>2023-02-07T13:50:29Z</time>
      </trkpt>
      <trkpt lat="44.88308" lon="-0.79584">
        <ele>39.200000762939</ele>
        <time>2023-02-07T13:50:30Z</time>
      </trkpt>
      <trkpt lat="44.88302" lon="-0.7958">
        <ele>39.200000762939</ele>
        <time>2023-02-07T13:50:31Z</time>
      </trkpt>
      <trkpt lat="44.88297" lon="-0.79563">
        <ele>39.200000762939</ele>
        <time>2023-02-07T13:50:32Z</time>
      </trkpt>
      <trkpt lat="44.88308" lon="-0.79445">
        <ele>39.799999237061</ele>
        <time>2023-02-07T13:55:58Z</time>
      </trkpt>
      <trkpt lat="44.88309" lon="-0.79435">
        <ele>39.799999237061</ele>
        <time>2023-02-07T13:55:59Z</time>
      </trkpt>
      <trkpt lat="44.88309" lon="-0.79433">
        <ele>39.799999237061</ele>
        <time>2023-02-07T13:56:00Z</time>
      </trkpt>
      <trkpt lat="44.88309" lon="-0.79427">
        <ele>39</ele>
        <time>2023-02-07T13:56:13Z</time>
      </trkpt>
      <trkpt lat="44.88335" lon="-0.79419">
        <ele>39</ele>
        <time>2023-02-07T13:57:11Z</time>
      </trkpt>
      <trkpt lat="44.8835" lon="-0.7941">
        <ele>39</ele>
        <time>2023-02-07T13:57:15Z</time>
      </trkpt>
      <trkpt lat="44.88363" lon="-0.79396">
        <ele>39</ele>
        <time>2023-02-07T13:57:19Z</time>
      </trkpt>
      <trkpt lat="44.88395" lon="-0.79372">
        <ele>39.799999237061</ele>
        <time>2023-02-07T13:57:29Z</time>
      </trkpt>
      <trkpt lat="44.88426" lon="-0.79361">
        <ele>40.400001525879</ele>
        <time>2023-02-07T13:57:38Z</time>
      </trkpt>
      <trkpt lat="44.88433" lon="-0.79357">
        <ele>40.400001525879</ele>
        <time>2023-02-07T13:57:40Z</time>
      </trkpt>
      <trkpt lat="44.88444" lon="-0.79349">
        <ele>40.200000762939</ele>
        <time>2023-02-07T13:57:43Z</time>
      </trkpt>
      <trkpt lat="44.88494" lon="-0.79319">
        <ele>42.599998474121</ele>
        <time>2023-02-07T13:57:56Z</time>
      </trkpt>
      <trkpt lat="44.88509" lon="-0.79307">
        <ele>43.599998474121</ele>
        <time>2023-02-07T13:58:00Z</time>
      </trkpt>
      <trkpt lat="44.88518" lon="-0.79299">
        <ele>43.799999237061</ele>
        <time>2023-02-07T13:58:03Z</time>
      </trkpt>
      <trkpt lat="44.88533" lon="-0.79292">
        <ele>44.400001525879</ele>
        <time>2023-02-07T13:58:07Z</time>
      </trkpt>
      <trkpt lat="44.88546" lon="-0.79286">
        <ele>44.400001525879</ele>
        <time>2023-02-07T13:58:11Z</time>
      </trkpt>
      <trkpt lat="44.88552" lon="-0.79265">
        <ele>44.400001525879</ele>
        <time>2023-02-07T13:58:15Z</time>
      </trkpt>
      <trkpt lat="44.88563" lon="-0.79225">
        <ele>44</ele>
        <time>2023-02-07T13:58:25Z</time>
      </trkpt>
      <trkpt lat="44.88564" lon="-0.7922">
        <ele>43.799999237061</ele>
        <time>2023-02-07T13:58:40Z</time>
      </trkpt>
      <trkpt lat="44.88565" lon="-0.79219">
        <ele>44</ele>
        <time>2023-02-07T13:59:13Z</time>
      </trkpt>
      <trkpt lat="44.88567" lon="-0.79207">
        <ele>43.599998474121</ele>
        <time>2023-02-07T13:59:19Z</time>
      </trkpt>
      <trkpt lat="44.8858" lon="-0.79155">
        <ele>43.599998474121</ele>
        <time>2023-02-07T13:59:31Z</time>
      </trkpt>
      <trkpt lat="44.88592" lon="-0.7911">
        <ele>42.799999237061</ele>
        <time>2023-02-07T13:59:43Z</time>
      </trkpt>
      <trkpt lat="44.88612" lon="-0.79017">
        <ele>43.200000762939</ele>
        <time>2023-02-07T14:00:00Z</time>
      </trkpt>
      <trkpt lat="44.88624" lon="-0.78946">
        <ele>43.400001525879</ele>
        <time>2023-02-07T14:00:11Z</time>
      </trkpt>
      <trkpt lat="44.88626" lon="-0.78923">
        <ele>42.799999237061</ele>
        <time>2023-02-07T14:00:16Z</time>
      </trkpt>
      <trkpt lat="44.88644" lon="-0.78815">
        <ele>43.599998474121</ele>
        <time>2023-02-07T14:00:31Z</time>
      </trkpt>
      <trkpt lat="44.88662" lon="-0.78705">
        <ele>43.599998474121</ele>
        <time>2023-02-07T14:00:46Z</time>
      </trkpt>
      <trkpt lat="44.88673" lon="-0.78635">
        <ele>44.200000762939</ele>
        <time>2023-02-07T14:00:56Z</time>
      </trkpt>
      <trkpt lat="44.88677" lon="-0.78615">
        <ele>44.400001525879</ele>
        <time>2023-02-07T14:00:59Z</time>
      </trkpt>
      <trkpt lat="44.887" lon="-0.785">
        <ele>43.400001525879</ele>
        <time>2023-02-07T14:01:17Z</time>
      </trkpt>
      <trkpt lat="44.88712" lon="-0.78449">
        <ele>43.599998474121</ele>
        <time>2023-02-07T14:01:25Z</time>
      </trkpt>
      <trkpt lat="44.88715" lon="-0.78426">
        <ele>43.799999237061</ele>
        <time>2023-02-07T14:01:29Z</time>
      </trkpt>
      <trkpt lat="44.88725" lon="-0.7837">
        <ele>43.400001525879</ele>
        <time>2023-02-07T14:01:41Z</time>
      </trkpt>
      <trkpt lat="44.88732" lon="-0.78331">
        <ele>42.799999237061</ele>
        <time>2023-02-07T14:01:52Z</time>
      </trkpt>
      <trkpt lat="44.88752" lon="-0.78308">
        <ele>43</ele>
        <time>2023-02-07T14:02:02Z</time>
      </trkpt>
      <trkpt lat="44.88799" lon="-0.78271">
        <ele>43.799999237061</ele>
        <time>2023-02-07T14:02:20Z</time>
      </trkpt>
      <trkpt lat="44.88844" lon="-0.78239">
        <ele>43.599998474121</ele>
        <time>2023-02-07T14:02:35Z</time>
      </trkpt>
      <trkpt lat="44.8888" lon="-0.78215">
        <ele>43.599998474121</ele>
        <time>2023-02-07T14:02:48Z</time>
      </trkpt>
      <trkpt lat="44.88893" lon="-0.7819">
        <ele>43.200000762939</ele>
        <time>2023-02-07T14:02:59Z</time>
      </trkpt>
      <trkpt lat="44.88918" lon="-0.78171">
        <ele>43.200000762939</ele>
        <time>2023-02-07T14:03:08Z</time>
      </trkpt>
      <trkpt lat="44.88929" lon="-0.78157">
        <ele>43.200000762939</ele>
        <time>2023-02-07T14:03:12Z</time>
      </trkpt>
      <trkpt lat="44.88954" lon="-0.78114">
        <ele>43.400001525879</ele>
        <time>2023-02-07T14:03:24Z</time>
      </trkpt>
      <trkpt lat="44.88978" lon="-0.78108">
        <ele>43.400001525879</ele>
        <time>2023-02-07T14:03:32Z</time>
      </trkpt>
      <trkpt lat="44.88995" lon="-0.781">
        <ele>43.400001525879</ele>
        <time>2023-02-07T14:03:37Z</time>
      </trkpt>
      <trkpt lat="44.89004" lon="-0.78086">
        <ele>43.400001525879</ele>
        <time>2023-02-07T14:03:41Z</time>
      </trkpt>
      <trkpt lat="44.89041" lon="-0.78036">
        <ele>43.200000762939</ele>
        <time>2023-02-07T14:03:54Z</time>
      </trkpt>
      <trkpt lat="44.89051" lon="-0.78026">
        <ele>43.200000762939</ele>
        <time>2023-02-07T14:03:57Z</time>
      </trkpt>
      <trkpt lat="44.89052" lon="-0.7799">
        <ele>43.200000762939</ele>
        <time>2023-02-07T14:04:04Z</time>
      </trkpt>
      <trkpt lat="44.89051" lon="-0.77922">
        <ele>43</ele>
        <time>2023-02-07T14:04:18Z</time>
      </trkpt>
      <trkpt lat="44.89039" lon="-0.77884">
        <ele>42</ele>
        <time>2023-02-07T14:04:29Z</time>
      </trkpt>
      <trkpt lat="44.89041" lon="-0.77876">
        <ele>42</ele>
        <time>2023-02-07T14:08:42Z</time>
      </trkpt>
      <trkpt lat="44.89043" lon="-0.77876">
        <ele>42</ele>
        <time>2023-02-07T14:08:43Z</time>
      </trkpt>
      <trkpt lat="44.89054" lon="-0.77868">
        <ele>42</ele>
        <time>2023-02-07T14:08:49Z</time>
      </trkpt>
      <trkpt lat="44.8907" lon="-0.77851">
        <ele>42.599998474121</ele>
        <time>2023-02-07T14:09:01Z</time>
      </trkpt>
      <trkpt lat="44.89073" lon="-0.77848">
        <ele>43.200000762939</ele>
        <time>2023-02-07T14:09:25Z</time>
      </trkpt>
      <trkpt lat="44.89073" lon="-0.77824">
        <ele>43.599998474121</ele>
        <time>2023-02-07T14:09:39Z</time>
      </trkpt>
      <trkpt lat="44.89073" lon="-0.77822">
        <ele>43.599998474121</ele>
        <time>2023-02-07T14:09:40Z</time>
      </trkpt>
      <trkpt lat="44.89079" lon="-0.77792">
        <ele>43.400001525879</ele>
        <time>2023-02-07T14:09:51Z</time>
      </trkpt>
      <trkpt lat="44.89095" lon="-0.77789">
        <ele>43.200000762939</ele>
        <time>2023-02-07T14:10:04Z</time>
      </trkpt>
      <trkpt lat="44.89107" lon="-0.77789">
        <ele>43.200000762939</ele>
        <time>2023-02-07T14:10:09Z</time>
      </trkpt>
      <trkpt lat="44.89114" lon="-0.77784">
        <ele>43.200000762939</ele>
        <time>2023-02-07T14:10:13Z</time>
      </trkpt>
      <trkpt lat="44.89118" lon="-0.77779">
        <ele>43.200000762939</ele>
        <time>2023-02-07T14:10:17Z</time>
      </trkpt>
      <trkpt lat="44.89107" lon="-0.77746">
        <ele>43.200000762939</ele>
        <time>2023-02-07T14:10:29Z</time>
      </trkpt>
      <trkpt lat="44.891" lon="-0.77687">
        <ele>43</ele>
        <time>2023-02-07T14:10:43Z</time>
      </trkpt>
      <trkpt lat="44.89095" lon="-0.77658">
        <ele>43</ele>
        <time>2023-02-07T14:10:51Z</time>
      </trkpt>
      <trkpt lat="44.891" lon="-0.77647">
        <ele>42.799999237061</ele>
        <time>2023-02-07T14:10:58Z</time>
      </trkpt>
      <trkpt lat="44.89097" lon="-0.77619">
        <ele>42.400001525879</ele>
        <time>2023-02-07T14:11:10Z</time>
      </trkpt>
      <trkpt lat="44.89097" lon="-0.77616">
        <ele>42.400001525879</ele>
        <time>2023-02-07T14:11:11Z</time>
      </trkpt>
      <trkpt lat="44.89099" lon="-0.77599">
        <ele>42.200000762939</ele>
        <time>2023-02-07T14:11:16Z</time>
      </trkpt>
      <trkpt lat="44.89095" lon="-0.77581">
        <ele>42.400001525879</ele>
        <time>2023-02-07T14:11:21Z</time>
      </trkpt>
      <trkpt lat="44.89095" lon="-0.77573">
        <ele>42.599998474121</ele>
        <time>2023-02-07T14:11:23Z</time>
      </trkpt>
      <trkpt lat="44.89092" lon="-0.77532">
        <ele>43.200000762939</ele>
        <time>2023-02-07T14:11:33Z</time>
      </trkpt>
      <trkpt lat="44.89107" lon="-0.77512">
        <ele>43.599998474121</ele>
        <time>2023-02-07T14:11:43Z</time>
      </trkpt>
      <trkpt lat="44.89132" lon="-0.77481">
        <ele>43.799999237061</ele>
        <time>2023-02-07T14:11:55Z</time>
      </trkpt>
      <trkpt lat="44.89145" lon="-0.77461">
        <ele>43.599998474121</ele>
        <time>2023-02-07T14:12:05Z</time>
      </trkpt>
      <trkpt lat="44.89141" lon="-0.77457">
        <ele>43.599998474121</ele>
        <time>2023-02-07T14:12:08Z</time>
      </trkpt>
      <trkpt lat="44.89083" lon="-0.77442">
        <ele>43.200000762939</ele>
        <time>2023-02-07T14:12:24Z</time>
      </trkpt>
      <trkpt lat="44.89031" lon="-0.77411">
        <ele>43</ele>
        <time>2023-02-07T14:12:38Z</time>
      </trkpt>
      <trkpt lat="44.89024" lon="-0.77401">
        <ele>43</ele>
        <time>2023-02-07T14:12:50Z</time>
      </trkpt>
      <trkpt lat="44.89022" lon="-0.77399">
        <ele>42.599998474121</ele>
        <time>2023-02-07T14:13:01Z</time>
      </trkpt>
      <trkpt lat="44.8902" lon="-0.77397">
        <ele>42.599998474121</ele>
        <time>2023-02-07T14:13:02Z</time>
      </trkpt>
      <trkpt lat="44.89018" lon="-0.77395">
        <ele>42.599998474121</ele>
        <time>2023-02-07T14:13:03Z</time>
      </trkpt>
      <trkpt lat="44.89016" lon="-0.77393">
        <ele>42.599998474121</ele>
        <time>2023-02-07T14:13:04Z</time>
      </trkpt>
      <trkpt lat="44.89014" lon="-0.7739">
        <ele>42.599998474121</ele>
        <time>2023-02-07T14:13:05Z</time>
      </trkpt>
      <trkpt lat="44.88983" lon="-0.77361">
        <ele>42.400001525879</ele>
        <time>2023-02-07T14:13:15Z</time>
      </trkpt>
      <trkpt lat="44.88949" lon="-0.77335">
        <ele>42.400001525879</ele>
        <time>2023-02-07T14:13:25Z</time>
      </trkpt>
      <trkpt lat="44.88906" lon="-0.77305">
        <ele>41.799999237061</ele>
        <time>2023-02-07T14:13:36Z</time>
      </trkpt>
      <trkpt lat="44.88865" lon="-0.77271">
        <ele>41</ele>
        <time>2023-02-07T14:13:49Z</time>
      </trkpt>
      <trkpt lat="44.88847" lon="-0.77249">
        <ele>40.599998474121</ele>
        <time>2023-02-07T14:13:59Z</time>
      </trkpt>
      <trkpt lat="44.88843" lon="-0.77238">
        <ele>40.400001525879</ele>
        <time>2023-02-07T14:14:14Z</time>
      </trkpt>
      <trkpt lat="44.88838" lon="-0.77231">
        <ele>40.200000762939</ele>
        <time>2023-02-07T14:14:37Z</time>
      </trkpt>
      <trkpt lat="44.88833" lon="-0.77223">
        <ele>40.200000762939</ele>
        <time>2023-02-07T14:14:43Z</time>
      </trkpt>
      <trkpt lat="44.88814" lon="-0.77206">
        <ele>40</ele>
        <time>2023-02-07T14:14:49Z</time>
      </trkpt>
      <trkpt lat="44.88772" lon="-0.77178">
        <ele>40</ele>
        <time>2023-02-07T14:14:59Z</time>
      </trkpt>
      <trkpt lat="44.88757" lon="-0.77162">
        <ele>40</ele>
        <time>2023-02-07T14:15:03Z</time>
      </trkpt>
      <trkpt lat="44.88747" lon="-0.77145">
        <ele>42</ele>
        <time>2023-02-07T14:16:11Z</time>
      </trkpt>
      <trkpt lat="44.88745" lon="-0.77141">
        <ele>42</ele>
        <time>2023-02-07T14:16:12Z</time>
      </trkpt>
      <trkpt lat="44.88743" lon="-0.77139">
        <ele>42</ele>
        <time>2023-02-07T14:16:14Z</time>
      </trkpt>
      <trkpt lat="44.88743" lon="-0.77137">
        <ele>42</ele>
        <time>2023-02-07T14:16:15Z</time>
      </trkpt>
      <trkpt lat="44.88744" lon="-0.77136">
        <ele>41.799999237061</ele>
        <time>2023-02-07T14:16:16Z</time>
      </trkpt>
      <trkpt lat="44.88745" lon="-0.77134">
        <ele>41.799999237061</ele>
        <time>2023-02-07T14:16:17Z</time>
      </trkpt>
      <trkpt lat="44.88746" lon="-0.77133">
        <ele>41.799999237061</ele>
        <time>2023-02-07T14:16:18Z</time>
      </trkpt>
      <trkpt lat="44.88747" lon="-0.77131">
        <ele>41.799999237061</ele>
        <time>2023-02-07T14:16:19Z</time>
      </trkpt>
      <trkpt lat="44.88749" lon="-0.7713">
        <ele>41.799999237061</ele>
        <time>2023-02-07T14:16:20Z</time>
      </trkpt>
      <trkpt lat="44.88751" lon="-0.77129">
        <ele>41.799999237061</ele>
        <time>2023-02-07T14:16:21Z</time>
      </trkpt>
      <trkpt lat="44.88753" lon="-0.77128">
        <ele>41.799999237061</ele>
        <time>2023-02-07T14:16:22Z</time>
      </trkpt>
      <trkpt lat="44.88755" lon="-0.77127">
        <ele>42</ele>
        <time>2023-02-07T14:16:23Z</time>
      </trkpt>
      <trkpt lat="44.88757" lon="-0.77126">
        <ele>42</ele>
        <time>2023-02-07T14:16:24Z</time>
      </trkpt>
      <trkpt lat="44.88789" lon="-0.77105">
        <ele>41.799999237061</ele>
        <time>2023-02-07T14:16:36Z</time>
      </trkpt>
      <trkpt lat="44.8884" lon="-0.77077">
        <ele>41.400001525879</ele>
        <time>2023-02-07T14:16:52Z</time>
      </trkpt>
      <trkpt lat="44.88873" lon="-0.77059">
        <ele>41</ele>
        <time>2023-02-07T14:17:03Z</time>
      </trkpt>
      <trkpt lat="44.88878" lon="-0.77054">
        <ele>41</ele>
        <time>2023-02-07T14:17:06Z</time>
      </trkpt>
      <trkpt lat="44.88878" lon="-0.77048">
        <ele>41</ele>
        <time>2023-02-07T14:17:08Z</time>
      </trkpt>
      <trkpt lat="44.88877" lon="-0.77045">
        <ele>41</ele>
        <time>2023-02-07T14:17:09Z</time>
      </trkpt>
      <trkpt lat="44.8886" lon="-0.7702">
        <ele>40.400001525879</ele>
        <time>2023-02-07T14:17:19Z</time>
      </trkpt>
      <trkpt lat="44.88832" lon="-0.76994">
        <ele>39.799999237061</ele>
        <time>2023-02-07T14:17:29Z</time>
      </trkpt>
      <trkpt lat="44.88829" lon="-0.76991">
        <ele>39.799999237061</ele>
        <time>2023-02-07T14:17:30Z</time>
      </trkpt>
      <trkpt lat="44.88795" lon="-0.76955">
        <ele>39.200000762939</ele>
        <time>2023-02-07T14:17:40Z</time>
      </trkpt>
      <trkpt lat="44.88781" lon="-0.76957">
        <ele>39.599998474121</ele>
        <time>2023-02-07T14:17:45Z</time>
      </trkpt>
      <trkpt lat="44.88756" lon="-0.76941">
        <ele>39.799999237061</ele>
        <time>2023-02-07T14:17:56Z</time>
      </trkpt>
      <trkpt lat="44.88744" lon="-0.76929">
        <ele>39.799999237061</ele>
        <time>2023-02-07T14:18:10Z</time>
      </trkpt>
      <trkpt lat="44.8874" lon="-0.76919">
        <ele>39.799999237061</ele>
        <time>2023-02-07T14:18:21Z</time>
      </trkpt>
      <trkpt lat="44.88716" lon="-0.76901">
        <ele>39.400001525879</ele>
        <time>2023-02-07T14:18:29Z</time>
      </trkpt>
      <trkpt lat="44.88711" lon="-0.7689">
        <ele>38.400001525879</ele>
        <time>2023-02-07T14:18:32Z</time>
      </trkpt>
      <trkpt lat="44.88708" lon="-0.76863">
        <ele>37.799999237061</ele>
        <time>2023-02-07T14:18:41Z</time>
      </trkpt>
      <trkpt lat="44.88713" lon="-0.76859">
        <ele>40.200000762939</ele>
        <time>2023-02-07T14:18:59Z</time>
      </trkpt>
      <trkpt lat="44.88726" lon="-0.76845">
        <ele>40.400001525879</ele>
        <time>2023-02-07T14:19:45Z</time>
      </trkpt>
      <trkpt lat="44.8875" lon="-0.76817">
        <ele>40.599998474121</ele>
        <time>2023-02-07T14:19:57Z</time>
      </trkpt>
      <trkpt lat="44.88773" lon="-0.768">
        <ele>40.400001525879</ele>
        <time>2023-02-07T14:20:04Z</time>
      </trkpt>
      <trkpt lat="44.88802" lon="-0.76777">
        <ele>40.799999237061</ele>
        <time>2023-02-07T14:20:12Z</time>
      </trkpt>
      <trkpt lat="44.88841" lon="-0.7674">
        <ele>42.200000762939</ele>
        <time>2023-02-07T14:20:24Z</time>
      </trkpt>
      <trkpt lat="44.88879" lon="-0.76709">
        <ele>42.599998474121</ele>
        <time>2023-02-07T14:20:35Z</time>
      </trkpt>
      <trkpt lat="44.88919" lon="-0.76684">
        <ele>42.799999237061</ele>
        <time>2023-02-07T14:20:45Z</time>
      </trkpt>
      <trkpt lat="44.88922" lon="-0.76681">
        <ele>42.799999237061</ele>
        <time>2023-02-07T14:20:46Z</time>
      </trkpt>
      <trkpt lat="44.88925" lon="-0.76665">
        <ele>42.799999237061</ele>
        <time>2023-02-07T14:20:50Z</time>
      </trkpt>
      <trkpt lat="44.88919" lon="-0.76625">
        <ele>42.599998474121</ele>
        <time>2023-02-07T14:20:57Z</time>
      </trkpt>
      <trkpt lat="44.88912" lon="-0.76573">
        <ele>42.200000762939</ele>
        <time>2023-02-07T14:21:05Z</time>
      </trkpt>
      <trkpt lat="44.88886" lon="-0.76523">
        <ele>41.200000762939</ele>
        <time>2023-02-07T14:21:17Z</time>
      </trkpt>
      <trkpt lat="44.88874" lon="-0.76503">
        <ele>40.400001525879</ele>
        <time>2023-02-07T14:21:43Z</time>
      </trkpt>
      <trkpt lat="44.88863" lon="-0.76487">
        <ele>40</ele>
        <time>2023-02-07T14:21:47Z</time>
      </trkpt>
      <trkpt lat="44.88836" lon="-0.76448">
        <ele>39.400001525879</ele>
        <time>2023-02-07T14:21:56Z</time>
      </trkpt>
      <trkpt lat="44.88787" lon="-0.76361">
        <ele>39</ele>
        <time>2023-02-07T14:22:13Z</time>
      </trkpt>
      <trkpt lat="44.88781" lon="-0.76353">
        <ele>39</ele>
        <time>2023-02-07T14:22:15Z</time>
      </trkpt>
      <trkpt lat="44.8875" lon="-0.76301">
        <ele>38.799999237061</ele>
        <time>2023-02-07T14:22:29Z</time>
      </trkpt>
      <trkpt lat="44.88744" lon="-0.76288">
        <ele>38.799999237061</ele>
        <time>2023-02-07T14:22:41Z</time>
      </trkpt>
      <trkpt lat="44.88744" lon="-0.76287">
        <ele>38.799999237061</ele>
        <time>2023-02-07T14:23:01Z</time>
      </trkpt>
      <trkpt lat="44.88742" lon="-0.75675">
        <ele>33</ele>
      </trkpt>
      <trkpt lat="44.88736" lon="-0.75523">
        <ele>33</ele>
      </trkpt>
      <trkpt lat="44.88733" lon="-0.75457">
        <ele>33</ele>
      </trkpt>
      <trkpt lat="44.88708" lon="-0.75107">
        <ele>34</ele>
        <time>2023-02-07T14:28:50Z</time>
      </trkpt>
      <trkpt lat="44.88707" lon="-0.75107">
        <ele>34</ele>
        <time>2023-02-07T14:28:54Z</time>
      </trkpt>
      <trkpt lat="44.88705" lon="-0.751">
        <ele>34</ele>
        <time>2023-02-07T14:28:57Z</time>
      </trkpt>
      <trkpt lat="44.88703" lon="-0.75097">
        <ele>34</ele>
        <time>2023-02-07T14:28:58Z</time>
      </trkpt>
      <trkpt lat="44.88702" lon="-0.75093">
        <ele>34</ele>
        <time>2023-02-07T14:28:59Z</time>
      </trkpt>
      <trkpt lat="44.88701" lon="-0.75088">
        <ele>34</ele>
        <time>2023-02-07T14:29:00Z</time>
      </trkpt>
      <trkpt lat="44.88701" lon="-0.75083">
        <ele>34</ele>
        <time>2023-02-07T14:29:01Z</time>
      </trkpt>
      <trkpt lat="44.88701" lon="-0.75079">
        <ele>34</ele>
        <time>2023-02-07T14:29:02Z</time>
      </trkpt>
      <trkpt lat="44.887" lon="-0.75074">
        <ele>33.799999237061</ele>
        <time>2023-02-07T14:29:03Z</time>
      </trkpt>
      <trkpt lat="44.887" lon="-0.75069">
        <ele>33.799999237061</ele>
        <time>2023-02-07T14:29:04Z</time>
      </trkpt>
      <trkpt lat="44.88694" lon="-0.74967">
        <ele>33.799999237061</ele>
        <time>2023-02-07T14:29:19Z</time>
      </trkpt>
      <trkpt lat="44.88686" lon="-0.74865">
        <ele>33.400001525879</ele>
        <time>2023-02-07T14:29:34Z</time>
      </trkpt>
      <trkpt lat="44.88684" lon="-0.74817">
        <ele>33.200000762939</ele>
        <time>2023-02-07T14:29:44Z</time>
      </trkpt>
      <trkpt lat="44.88689" lon="-0.74798">
        <ele>33.200000762939</ele>
        <time>2023-02-07T14:29:55Z</time>
      </trkpt>
      <trkpt lat="44.88689" lon="-0.74798">
        <ele>33</ele>
        <time>2023-02-07T14:30:03Z</time>
      </trkpt>
    </trkseg>
  </trk>
</gpx>